Time;durP1;ratioP1;P1;durP2;ratioP2;P2;SDS_P1;SDS_P2;PMS_P1;PMS_P2;Temp;Humidity;BMP_temperature;BMP_pressure;BME280_temperature;BME280_humidity;BME280_pressure;Samples;Min_cycle;Max_cycle;Signal;HPM_P1;HPM_P2
2021/06/21 00:01:32;;;;;;;4.45;2.50;;;20.20;99.90;;;;;;5071137;28;20044;-85
2021/06/21 00:03:58;;;;;;;2.95;2.20;;;20.10;99.90;;;;;;5073541;28;20036;-86
2021/06/21 00:06:24;;;;;;;4.47;2.35;;;20.10;99.90;;;;;;5076376;28;20108;-86
2021/06/21 00:08:51;;;;;;;3.58;2.67;;;20.00;99.90;;;;;;5073114;28;20039;-86
2021/06/21 00:11:17;;;;;;;4.25;2.45;;;20.00;99.90;;;;;;5092500;28;20047;-87
2021/06/21 00:13:43;;;;;;;4.97;2.33;;;20.00;99.90;;;;;;5092922;28;20036;-86
2021/06/21 00:16:10;;;;;;;3.97;2.20;;;19.90;99.90;;;;;;5094257;28;20038;-85
2021/06/21 00:18:35;;;;;;;5.03;2.40;;;19.90;99.90;;;;;;5106279;28;20036;-85
2021/06/21 00:21:02;;;;;;;4.28;2.50;;;19.90;99.90;;;;;;5082001;28;20028;-85
2021/06/21 00:23:28;;;;;;;3.30;1.95;;;19.80;99.90;;;;;;5074431;28;20058;-86
2021/06/21 00:25:54;;;;;;;4.45;2.53;;;19.80;99.90;;;;;;5072212;28;20040;-85
2021/06/21 00:28:20;;;;;;;4.35;2.78;;;19.80;99.90;;;;;;5070529;28;20647;-87
2021/06/21 00:30:46;;;;;;;4.32;2.63;;;19.80;99.90;;;;;;5069975;28;20163;-86
2021/06/21 00:33:12;;;;;;;5.65;3.20;;;19.70;99.90;;;;;;5070633;28;20037;-87
2021/06/21 00:35:38;;;;;;;4.60;3.00;;;19.70;99.90;;;;;;5064565;28;20113;-84
2021/06/21 00:38:05;;;;;;;5.05;3.38;;;19.70;99.90;;;;;;5070310;28;20048;-84
2021/06/21 00:40:33;;;;;;;4.10;2.60;;;19.70;99.90;;;;;;5056735;28;20530;-86
2021/06/21 00:42:59;;;;;;;3.67;2.80;;;19.60;99.90;;;;;;5071865;28;20907;-86
2021/06/21 00:45:25;;;;;;;4.82;3.40;;;19.60;99.90;;;;;;5072860;28;20121;-86
2021/06/21 00:47:52;;;;;;;4.53;2.83;;;19.50;99.90;;;;;;5064429;28;20509;-86
2021/06/21 00:50:18;;;;;;;3.75;2.85;;;19.50;99.90;;;;;;5079004;28;20558;-86
2021/06/21 00:52:45;;;;;;;5.25;3.35;;;19.50;99.90;;;;;;5081747;28;20013;-84
2021/06/21 00:55:12;;;;;;;6.07;3.03;;;19.50;99.90;;;;;;5096474;28;20063;-85
2021/06/21 00:57:38;;;;;;;4.10;3.28;;;19.50;99.90;;;;;;5079413;28;20071;-84
2021/06/21 01:00:13;;;;;;;4.57;3.50;;;19.40;99.90;;;;;;5074226;28;20035;-84
2021/06/21 01:02:40;;;;;;;4.68;3.80;;;19.40;99.90;;;;;;5071854;28;20029;-88
2021/06/21 01:05:11;;;;;;;4.95;3.55;;;19.40;99.90;;;;;;5070018;28;20037;-88
2021/06/21 01:07:38;;;;;;;4.85;3.10;;;19.30;99.90;;;;;;5075219;28;20052;-87
2021/06/21 01:10:09;;;;;;;5.97;4.32;;;19.10;99.90;;;;;;5074936;28;20050;-86
2021/06/21 01:12:58;;;;;;;6.05;4.22;;;19.00;99.90;;;;;;5076630;28;20035;-88
2021/06/21 01:15:29;;;;;;;5.40;4.43;;;18.90;99.90;;;;;;5076697;28;20037;-87
2021/06/21 01:18:09;;;;;;;5.28;4.13;;;18.90;99.90;;;;;;5076393;28;20032;-86
2021/06/21 01:21:06;;;;;;;4.80;3.65;;;18.80;99.90;;;;;;5074699;28;20036;-88
2021/06/21 01:23:44;;;;;;;5.45;3.83;;;18.80;99.90;;;;;;5067499;28;20115;-90
2021/06/21 01:26:45;;;;;;;5.68;4.10;;;18.80;99.90;;;;;;5059339;28;20097;-87
2021/06/21 01:29:49;;;;;;;6.18;4.13;;;18.80;99.90;;;;;;5072568;28;20114;-87
2021/06/21 01:32:30;;;;;;;;;;;18.70;99.90;;;;;;5058219;28;20031;-87
2021/06/21 01:35:00;;;;;;;4.95;3.60;;;18.60;99.90;;;;;;5082770;28;19943;-87
2021/06/21 01:37:26;;;;;;;5.80;3.83;;;18.60;99.90;;;;;;5085352;28;20040;-87
2021/06/21 01:39:55;;;;;;;5.35;3.90;;;18.60;99.90;;;;;;5104470;28;20059;-87
2021/06/21 01:42:23;;;;;;;7.90;4.90;;;18.60;99.90;;;;;;5116050;28;20499;-87
2021/06/21 01:45:07;;;;;;;6.15;4.25;;;18.60;99.90;;;;;;5097472;28;20071;-87
2021/06/21 01:47:34;;;;;;;6.22;5.10;;;18.50;99.90;;;;;;5103088;28;20044;-86
2021/06/21 01:50:01;;;;;;;6.45;5.18;;;18.50;99.90;;;;;;5073070;28;20127;-87
2021/06/21 01:52:39;;;;;;;6.57;4.90;;;18.40;99.90;;;;;;5073871;28;20032;-88
2021/06/21 01:55:07;;;;;;;7.28;4.38;;;18.40;99.90;;;;;;5059301;28;20035;-87
2021/06/21 01:57:34;;;;;;;4.32;3.92;;;18.40;99.90;;;;;;5104787;28;20032;-86
2021/06/21 02:00:08;;;;;;;5.45;4.38;;;18.40;99.90;;;;;;5115784;28;20118;-86
2021/06/21 02:02:34;;;;;;;6.32;4.20;;;18.40;99.90;;;;;;5097487;28;20464;-86
2021/06/21 02:05:01;;;;;;;4.88;3.03;;;18.30;99.90;;;;;;5114962;28;20036;-85
2021/06/21 02:07:28;;;;;;;4.40;2.90;;;18.40;99.90;;;;;;5115450;28;20475;-85
2021/06/21 02:09:55;;;;;;;5.50;3.22;;;18.30;99.90;;;;;;5114479;28;20032;-86
2021/06/21 02:12:26;;;;;;;5.18;3.22;;;18.40;99.90;;;;;;5097777;28;20134;-85
2021/06/21 02:14:52;;;;;;;3.58;3.08;;;18.40;99.90;;;;;;5097041;28;20032;-84
2021/06/21 02:17:22;;;;;;;4.70;3.25;;;18.40;99.90;;;;;;5097051;28;20036;-84
2021/06/21 02:19:53;;;;;;;3.72;3.15;;;18.40;99.90;;;;;;5115222;28;20395;-85
2021/06/21 02:22:23;;;;;;;5.10;3.08;;;18.40;99.90;;;;;;5096574;28;20089;-85
2021/06/21 02:24:51;;;;;;;3.83;3.05;;;18.40;99.90;;;;;;5096764;28;20035;-84
2021/06/21 02:27:18;;;;;;;4.50;2.80;;;18.40;99.90;;;;;;5114755;28;20116;-85
2021/06/21 02:29:44;;;;;;;5.03;3.15;;;18.30;99.90;;;;;;5096610;28;20154;-85
2021/06/21 02:32:12;;;;;;;5.75;3.45;;;18.20;99.90;;;;;;5096284;28;20407;-86
2021/06/21 02:34:37;;;;;;;4.82;2.58;;;18.20;99.90;;;;;;5115005;28;20106;-85
2021/06/21 02:37:03;;;;;;;3.42;2.85;;;18.20;99.90;;;;;;5096978;28;20062;-84
2021/06/21 02:39:29;;;;;;;4.63;2.90;;;18.10;99.90;;;;;;5114692;28;20472;-84
2021/06/21 02:41:56;;;;;;;3.45;2.35;;;18.00;99.90;;;;;;5096868;28;20080;-84
2021/06/21 02:44:22;;;;;;;3.33;2.30;;;17.80;99.90;;;;;;5119610;28;20095;-84
2021/06/21 02:46:49;;;;;;;3.60;2.42;;;17.80;99.90;;;;;;5104435;28;20032;-85
2021/06/21 02:49:15;;;;;;;3.60;2.58;;;17.70;99.90;;;;;;5118486;28;20062;-84
2021/06/21 02:51:54;;;;;;;2.38;2.03;;;17.70;99.90;;;;;;5097176;28;20442;-85
2021/06/21 02:54:26;;;;;;;3.42;2.35;;;17.60;99.90;;;;;;5096798;28;20384;-85
2021/06/21 02:57:29;;;;;;;3.47;2.30;;;17.60;99.90;;;;;;5114935;28;20456;-86
2021/06/21 02:59:58;;;;;;;2.92;2.13;;;17.60;99.90;;;;;;5079174;28;20032;-85
2021/06/21 03:02:25;;;;;;;3.95;2.38;;;17.50;99.90;;;;;;5120605;28;20019;-84
2021/06/21 03:04:53;;;;;;;3.28;2.17;;;17.40;99.90;;;;;;5121177;28;20032;-86
2021/06/21 03:07:23;;;;;;;2.47;1.83;;;17.30;99.90;;;;;;5094095;28;20032;-84
2021/06/21 03:09:51;;;;;;;2.85;1.80;;;17.40;99.90;;;;;;5094743;28;20067;-85
2021/06/21 03:12:22;;;;;;;2.47;1.90;;;17.40;99.90;;;;;;5094401;28;20098;-87
2021/06/21 03:14:48;;;;;;;2.90;1.88;;;17.50;99.90;;;;;;5094245;28;20036;-86
2021/06/21 03:17:15;;;;;;;2.75;1.63;;;17.50;99.90;;;;;;5093834;28;20115;-86
2021/06/21 03:19:42;;;;;;;3.75;1.60;;;17.50;99.90;;;;;;5094049;28;20036;-85
2021/06/21 03:22:09;;;;;;;2.72;2.05;;;17.40;99.90;;;;;;5076186;28;20036;-86
2021/06/21 03:24:35;;;;;;;2.50;1.60;;;17.40;99.90;;;;;;5093727;28;20043;-84
2021/06/21 03:27:00;;;;;;;1.90;1.48;;;17.30;99.90;;;;;;5075747;28;20036;-84
2021/06/21 03:29:27;;;;;;;3.00;1.90;;;17.20;99.90;;;;;;5079802;28;20040;-85
2021/06/21 03:31:56;;;;;;;2.40;1.55;;;17.20;99.90;;;;;;5097913;28;20468;-85
2021/06/21 03:34:24;;;;;;;3.17;1.77;;;17.30;99.90;;;;;;5098245;28;20050;-86
2021/06/21 03:36:51;;;;;;;2.78;1.50;;;17.30;99.90;;;;;;5097718;28;20063;-84
2021/06/21 03:39:17;;;;;;;2.90;1.63;;;17.30;99.90;;;;;;5097755;28;20474;-86
2021/06/21 03:41:44;;;;;;;2.38;1.45;;;17.20;99.90;;;;;;5079932;28;20472;-85
2021/06/21 03:44:10;;;;;;;3.05;1.77;;;17.10;99.90;;;;;;5098202;28;20060;-85
2021/06/21 03:46:35;;;;;;;2.22;1.60;;;17.00;99.90;;;;;;5097859;28;20481;-85
2021/06/21 03:49:01;;;;;;;1.92;1.50;;;17.00;99.90;;;;;;5097223;28;20043;-84
2021/06/21 03:51:28;;;;;;;2.75;1.58;;;17.00;99.90;;;;;;5097218;28;20044;-84
2021/06/21 03:53:54;;;;;;;1.50;1.20;;;16.80;99.90;;;;;;5062724;28;20365;-85
2021/06/21 03:56:19;;;;;;;2.20;1.20;;;16.80;99.90;;;;;;5064531;28;20040;-84
2021/06/21 03:58:48;;;;;;;1.85;1.30;;;16.90;99.90;;;;;;5058803;28;20496;-85
2021/06/21 04:01:15;;;;;;;3.83;2.17;;;16.80;99.90;;;;;;5058976;28;20028;-85
2021/06/21 04:03:42;;;;;;;1.80;1.30;;;16.80;99.90;;;;;;5077135;28;20028;-85
2021/06/21 04:06:09;;;;;;;3.83;1.42;;;16.70;99.90;;;;;;5084286;28;20123;-85
2021/06/21 04:08:36;;;;;;;2.15;1.42;;;16.80;99.90;;;;;;5097411;28;20028;-85
2021/06/21 04:11:03;;;;;;;2.53;1.23;;;16.80;99.90;;;;;;5075435;28;20037;-85
2021/06/21 04:13:33;;;;;;;2.25;1.40;;;16.80;99.90;;;;;;5058839;28;20044;-86
2021/06/21 04:15:59;;;;;;;3.67;1.52;;;16.70;99.90;;;;;;5075576;28;20162;-86
2021/06/21 04:18:25;;;;;;;2.00;1.42;;;16.50;99.90;;;;;;5075503;28;20067;-85
2021/06/21 04:20:51;;;;;;;2.58;1.80;;;16.50;99.90;;;;;;5076547;28;20029;-85
2021/06/21 04:23:18;;;;;;;1.65;1.17;;;16.50;99.90;;;;;;5074864;28;20040;-85
2021/06/21 04:25:46;;;;;;;2.97;1.58;;;16.50;99.90;;;;;;5076375;28;20041;-85
2021/06/21 04:28:12;;;;;;;1.70;1.20;;;16.50;99.90;;;;;;5075387;28;20063;-85
2021/06/21 04:30:38;;;;;;;2.08;1.30;;;16.50;99.90;;;;;;5093052;28;20044;-85
2021/06/21 04:33:04;;;;;;;2.83;1.45;;;16.40;99.90;;;;;;5118665;28;20063;-86
2021/06/21 04:35:30;;;;;;;3.67;1.50;;;16.50;99.90;;;;;;5124085;28;20016;-82
2021/06/21 04:37:57;;;;;;;2.58;1.27;;;16.40;99.90;;;;;;5116986;28;20024;-86
2021/06/21 04:40:29;;;;;;;1.85;1.33;;;16.40;99.90;;;;;;5088506;28;20400;-85
2021/06/21 04:42:55;;;;;;;1.60;1.20;;;16.40;99.90;;;;;;5062261;28;20028;-84
2021/06/21 04:45:21;;;;;;;1.92;1.20;;;16.30;99.90;;;;;;5075946;28;20066;-85
2021/06/21 04:47:47;;;;;;;1.30;1.10;;;16.30;99.90;;;;;;5075853;28;20084;-85
2021/06/21 04:50:18;;;;;;;2.90;1.33;;;16.30;99.90;;;;;;5094392;28;20042;-85
2021/06/21 04:52:46;;;;;;;2.53;1.52;;;16.40;99.90;;;;;;5059751;28;20089;-85
2021/06/21 04:55:14;;;;;;;2.15;1.27;;;16.30;99.90;;;;;;5072792;28;20040;-86
2021/06/21 04:57:43;;;;;;;1.50;1.30;;;16.30;99.90;;;;;;5067945;28;20556;-85
2021/06/21 05:00:17;;;;;;;2.38;1.30;;;16.30;99.90;;;;;;5093534;28;20073;-84
2021/06/21 05:02:52;;;;;;;1.90;1.15;;;16.30;99.90;;;;;;5059827;28;20124;-84
2021/06/21 05:05:19;;;;;;;1.25;0.98;;;16.30;99.90;;;;;;5073783;28;20043;-86
2021/06/21 05:07:50;;;;;;;1.42;1.10;;;16.30;99.90;;;;;;5088808;28;20588;-85
2021/06/21 05:10:19;;;;;;;1.58;0.90;;;16.30;99.90;;;;;;5101233;28;20035;-85
2021/06/21 05:12:47;;;;;;;2.63;1.30;;;16.30;99.90;;;;;;5083459;28;20445;-86
2021/06/21 05:15:13;;;;;;;1.27;0.82;;;16.30;99.90;;;;;;5075053;28;20043;-86
2021/06/21 05:17:42;;;;;;;2.13;1.15;;;16.30;99.90;;;;;;5091485;28;20047;-85
2021/06/21 05:20:11;;;;;;;2.33;1.23;;;16.30;99.90;;;;;;5077294;28;20131;-85
2021/06/21 05:22:37;;;;;;;1.30;0.95;;;16.20;99.90;;;;;;5093974;28;20622;-86
2021/06/21 05:25:05;;;;;;;1.58;0.90;;;16.20;99.90;;;;;;5092971;28;20025;-85
2021/06/21 05:27:31;;;;;;;1.92;0.90;;;16.20;99.90;;;;;;5075253;28;20036;-85
2021/06/21 05:29:59;;;;;;;1.42;0.90;;;16.20;99.90;;;;;;5092988;28;20075;-85
2021/06/21 05:32:29;;;;;;;1.30;0.88;;;16.20;99.90;;;;;;5094402;28;20426;-86
2021/06/21 05:34:54;;;;;;;3.00;0.90;;;16.30;99.90;;;;;;5095239;28;20024;-84
2021/06/21 05:37:20;;;;;;;1.52;1.08;;;16.30;99.90;;;;;;5061393;28;20063;-84
2021/06/21 05:39:48;;;;;;;1.63;0.70;;;16.30;99.90;;;;;;5094961;28;20020;-84
2021/06/21 05:42:17;;;;;;;1.00;0.80;;;16.30;99.90;;;;;;5093253;28;20028;-86
2021/06/21 05:44:43;;;;;;;1.13;0.70;;;16.30;99.90;;;;;;5078396;28;20048;-84
2021/06/21 05:47:09;;;;;;;1.67;0.70;;;16.40;99.90;;;;;;5094232;28;20541;-85
2021/06/21 05:49:43;;;;;;;0.70;0.52;;;16.40;99.90;;;;;;5077031;28;20048;-85
2021/06/21 05:52:23;;;;;;;1.45;0.90;;;16.30;99.90;;;;;;5085158;28;20032;-84
2021/06/21 05:54:49;;;;;;;0.90;0.68;;;16.30;99.90;;;;;;5095243;28;20059;-84
2021/06/21 05:57:15;;;;;;;0.65;0.55;;;16.30;99.90;;;;;;5093092;28;20068;-85
2021/06/21 05:59:45;;;;;;;1.65;0.68;;;16.30;99.90;;;;;;5076761;28;20040;-86
2021/06/21 06:02:17;;;;;;;1.05;0.60;;;16.30;99.90;;;;;;5076932;28;20483;-85
2021/06/21 06:04:45;;;;;;;1.20;0.70;;;16.30;99.90;;;;;;5095137;28;20025;-83
2021/06/21 06:07:11;;;;;;;0.70;0.60;;;16.30;99.90;;;;;;5092809;28;20044;-84
2021/06/21 06:09:38;;;;;;;0.57;0.50;;;16.30;99.90;;;;;;5114859;28;20040;-84
2021/06/21 06:12:07;;;;;;;2.55;0.82;;;16.30;99.90;;;;;;5093309;28;20128;-84
2021/06/21 06:14:43;;;;;;;1.05;0.60;;;16.30;99.90;;;;;;5083553;28;20089;-85
2021/06/21 06:17:10;;;;;;;1.25;0.70;;;16.20;99.90;;;;;;5093179;28;20040;-85
2021/06/21 06:19:36;;;;;;;0.60;0.57;;;16.20;99.90;;;;;;5092781;28;20503;-85
2021/06/21 06:22:03;;;;;;;1.67;0.70;;;16.20;99.90;;;;;;5092718;28;20028;-84
2021/06/21 06:24:28;;;;;;;0.98;0.50;;;16.20;99.90;;;;;;5094280;28;20094;-84
2021/06/21 06:26:55;;;;;;;0.70;0.60;;;16.20;99.90;;;;;;5093283;28;20032;-85
2021/06/21 06:29:24;;;;;;;1.10;0.50;;;16.20;99.90;;;;;;5113046;28;20028;-84
2021/06/21 06:31:49;;;;;;;0.70;0.50;;;16.20;99.90;;;;;;5120757;28;20035;-85
2021/06/21 06:34:16;;;;;;;1.40;0.60;;;16.20;99.90;;;;;;5097878;28;20441;-85
2021/06/21 06:36:42;;;;;;;0.88;0.50;;;16.10;99.90;;;;;;5087804;28;20037;-84
2021/06/21 06:39:11;;;;;;;0.68;0.50;;;16.10;99.90;;;;;;5056952;28;20044;-83
2021/06/21 06:41:36;;;;;;;0.80;0.50;;;16.10;99.90;;;;;;5059888;28;20109;-86
2021/06/21 06:44:04;;;;;;;0.60;0.50;;;16.10;99.90;;;;;;5092328;28;20067;-86
2021/06/21 06:46:34;;;;;;;0.50;0.40;;;16.10;99.90;;;;;;5094484;28;20028;-85
2021/06/21 06:49:07;;;;;;;0.90;0.52;;;16.10;99.90;;;;;;5076513;28;20392;-84
2021/06/21 06:51:40;;;;;;;0.40;0.40;;;16.10;99.90;;;;;;5074980;28;20035;-86
2021/06/21 06:57:02;;;;;;;1.20;0.30;;;16.10;99.90;;;;;;5097686;28;20054;-86
2021/06/21 06:59:38;;;;;;;0.57;0.40;;;16.10;99.90;;;;;;5075712;28;20515;-85
2021/06/21 07:02:10;;;;;;;1.35;0.50;;;16.10;99.90;;;;;;5074898;28;20042;-84
2021/06/21 07:04:37;;;;;;;1.08;0.50;;;16.10;99.90;;;;;;5075980;28;20447;-86
2021/06/21 07:07:12;;;;;;;0.60;0.50;;;16.10;99.90;;;;;;5078286;28;20033;-86
2021/06/21 07:09:40;;;;;;;0.55;0.40;;;16.00;99.90;;;;;;5114399;28;20728;-84
2021/06/21 07:12:07;;;;;;;0.30;0.30;;;16.00;99.90;;;;;;5095769;28;20360;-86
2021/06/21 07:14:40;;;;;;;2.20;0.47;;;16.00;99.90;;;;;;5087536;28;20131;-85
2021/06/21 07:17:11;;;;;;;1.10;0.70;;;16.00;99.90;;;;;;5075446;28;20054;-85
2021/06/21 07:19:42;;;;;;;0.73;0.43;;;16.10;99.90;;;;;;5089962;28;20028;-84
2021/06/21 07:22:11;;;;;;;0.90;0.57;;;16.00;99.90;;;;;;5081904;28;20046;-85
2021/06/21 07:24:47;;;;;;;0.40;0.38;;;16.00;99.90;;;;;;5095542;28;20031;-85
2021/06/21 07:27:16;;;;;;;1.25;0.50;;;16.00;99.90;;;;;;5113708;28;20040;-85
2021/06/21 07:29:48;;;;;;;0.63;0.50;;;16.00;99.90;;;;;;5071966;28;20502;-83
2021/06/21 07:32:18;;;;;;;1.05;0.60;;;16.00;99.90;;;;;;5075883;28;20032;-84
2021/06/21 07:34:50;;;;;;;0.40;0.30;;;16.00;99.90;;;;;;5076156;28;20082;-84
2021/06/21 07:37:16;;;;;;;0.55;0.50;;;16.00;99.90;;;;;;5071551;28;20039;-84
2021/06/21 07:39:46;;;;;;;0.68;0.50;;;16.00;99.90;;;;;;5069689;28;20032;-84
2021/06/21 07:42:14;;;;;;;0.50;0.50;;;16.10;99.90;;;;;;5066249;28;20401;-84
2021/06/21 07:44:40;;;;;;;0.57;0.55;;;16.20;99.90;;;;;;5063162;28;20112;-84
2021/06/21 07:47:07;;;;;;;0.70;0.50;;;16.20;99.90;;;;;;5069233;28;20195;-84
2021/06/21 07:49:35;;;;;;;0.98;0.60;;;16.20;99.90;;;;;;5069695;28;20036;-85
2021/06/21 07:52:04;;;;;;;0.80;0.60;;;16.30;99.90;;;;;;5069896;28;20044;-83
2021/06/21 07:54:30;;;;;;;1.50;0.70;;;16.30;99.90;;;;;;5070508;28;20052;-84
2021/06/21 07:56:59;;;;;;;0.50;0.50;;;16.30;99.90;;;;;;5070178;28;20388;-85
2021/06/21 07:59:24;;;;;;;2.47;0.50;;;16.30;99.90;;;;;;5080016;28;20115;-85
2021/06/21 08:01:50;;;;;;;0.60;0.40;;;16.30;99.90;;;;;;5077076;28;20178;-85
2021/06/21 08:04:20;;;;;;;1.40;0.80;;;16.30;99.90;;;;;;5080012;28;20043;-87
2021/06/21 08:06:51;;;;;;;0.57;0.50;;;16.30;99.90;;;;;;5052864;28;20032;-85
2021/06/21 08:09:18;;;;;;;1.05;0.60;;;16.20;99.90;;;;;;5068316;28;20037;-85
2021/06/21 08:11:46;;;;;;;0.80;0.50;;;16.20;99.90;;;;;;5068606;28;20108;-85
2021/06/21 08:14:17;;;;;;;0.70;0.60;;;16.20;99.90;;;;;;5054086;28;20052;-84
2021/06/21 08:16:49;;;;;;;0.75;0.50;;;16.20;99.90;;;;;;5071065;28;20024;-84
2021/06/21 08:19:15;;;;;;;1.25;0.50;;;16.20;99.90;;;;;;5077370;28;20036;-84
2021/06/21 08:21:41;;;;;;;1.05;0.55;;;16.30;99.90;;;;;;5109128;28;20022;-83
2021/06/21 08:24:15;;;;;;;1.20;0.50;;;16.30;99.90;;;;;;5085130;28;20047;-84
2021/06/21 08:26:53;;;;;;;1.10;0.50;;;16.30;99.90;;;;;;5076947;28;20392;-85
2021/06/21 08:29:19;;;;;;;0.95;0.70;;;16.30;99.90;;;;;;5086480;28;20040;-85
2021/06/21 08:31:49;;;;;;;1.17;0.70;;;16.30;99.90;;;;;;5077073;28;20032;-86
2021/06/21 08:34:21;;;;;;;0.65;0.52;;;16.30;99.90;;;;;;5073313;28;20049;-86
2021/06/21 08:36:58;;;;;;;0.60;0.57;;;16.30;99.90;;;;;;5072803;28;20094;-84
2021/06/21 08:39:30;;;;;;;0.68;0.60;;;16.40;99.90;;;;;;5078158;28;20074;-83
2021/06/21 08:42:05;;;;;;;1.15;0.70;;;16.40;99.90;;;;;;5080745;28;20511;-85
2021/06/21 08:44:34;;;;;;;0.55;0.50;;;16.30;99.90;;;;;;5094325;28;20028;-84
2021/06/21 08:47:08;;;;;;;0.80;0.70;;;16.30;99.90;;;;;;5094139;28;20028;-85
2021/06/21 08:49:38;;;;;;;1.27;0.70;;;16.30;99.90;;;;;;5094478;28;20123;-85
2021/06/21 08:52:08;;;;;;;1.25;0.73;;;16.30;99.90;;;;;;5075960;28;20097;-83
2021/06/21 08:54:47;;;;;;;0.98;0.70;;;16.30;99.90;;;;;;5076420;28;20110;-84
2021/06/21 08:57:23;;;;;;;0.82;0.70;;;16.30;99.90;;;;;;5094736;28;20059;-84
2021/06/21 08:59:51;;;;;;;1.20;0.70;;;16.20;99.90;;;;;;5075797;28;20047;-84
2021/06/21 09:02:20;;;;;;;1.50;0.82;;;16.20;99.90;;;;;;5093560;28;20040;-84
2021/06/21 09:04:47;;;;;;;1.27;0.80;;;16.30;99.90;;;;;;5075702;28;20021;-84
2021/06/21 09:07:16;;;;;;;1.17;0.50;;;16.30;99.90;;;;;;5081373;28;20037;-85
2021/06/21 09:09:56;;;;;;;0.93;0.80;;;16.20;99.90;;;;;;5055508;28;20564;-84
2021/06/21 09:12:30;;;;;;;1.13;0.75;;;16.30;99.90;;;;;;5058964;28;20032;-84
2021/06/21 09:14:59;;;;;;;1.27;0.73;;;16.30;99.90;;;;;;5078131;28;20115;-83
2021/06/21 09:17:27;;;;;;;1.23;0.80;;;16.20;99.90;;;;;;5084302;28;20436;-85
2021/06/21 09:19:57;;;;;;;0.90;0.60;;;16.30;99.90;;;;;;5087483;28;20086;-83
2021/06/21 09:22:50;;;;;;;0.98;0.60;;;16.30;99.90;;;;;;5085015;28;20684;-84
2021/06/21 09:25:19;;;;;;;1.05;0.57;;;16.30;99.90;;;;;;5080085;28;20064;-84
2021/06/21 09:28:01;;;;;;;1.13;0.50;;;16.30;99.90;;;;;;5091112;28;20044;-84
2021/06/21 09:30:27;;;;;;;0.90;0.60;;;16.50;99.90;;;;;;5087107;28;20083;-84
2021/06/21 09:32:55;;;;;;;0.77;0.55;;;16.50;99.90;;;;;;5084088;28;20032;-84
2021/06/21 09:35:41;;;;;;;0.43;0.40;;;16.50;99.90;;;;;;5076251;28;20070;-83
2021/06/21 09:38:15;;;;;;;0.68;0.47;;;16.60;99.90;;;;;;5077449;28;20071;-83
2021/06/21 09:41:03;;;;;;;1.35;0.57;;;16.60;99.90;;;;;;5094796;28;20035;-84
2021/06/21 09:43:35;;;;;;;1.08;0.60;;;16.60;99.90;;;;;;5095358;28;20039;-84
2021/06/21 09:46:16;;;;;;;0.93;0.60;;;16.70;99.90;;;;;;5076119;28;20027;-84
2021/06/21 09:48:53;;;;;;;0.70;0.60;;;16.70;99.90;;;;;;5092013;28;20024;-85
2021/06/21 09:51:47;;;;;;;0.65;0.50;;;16.70;99.90;;;;;;5076020;28;20032;-84
2021/06/21 09:54:14;;;;;;;1.25;0.52;;;16.70;99.90;;;;;;5052236;28;20136;-85
2021/06/21 09:56:39;;;;;;;1.02;0.60;;;16.80;99.90;;;;;;5091929;28;20481;-84
2021/06/21 09:59:29;;;;;;;1.35;0.60;;;16.70;99.90;;;;;;5076875;28;20035;-85
2021/06/21 10:02:17;;;;;;;1.27;0.85;;;16.60;99.90;;;;;;5069299;28;20117;-84
2021/06/21 10:04:45;;;;;;;1.30;0.70;;;16.50;99.90;;;;;;5098557;28;20150;-85
2021/06/21 10:07:43;;;;;;;1.73;1.00;;;16.50;99.90;;;;;;5104218;28;20035;-84
2021/06/21 10:10:32;;;;;;;1.30;0.90;;;16.40;99.90;;;;;;5082564;28;20071;-84
2021/06/21 10:13:07;;;;;;;1.77;0.90;;;16.40;99.90;;;;;;5104686;28;20025;-85
2021/06/21 10:15:35;;;;;;;0.82;0.57;;;16.30;99.90;;;;;;5107543;28;20066;-84
2021/06/21 10:18:04;;;;;;;0.90;0.50;;;16.30;99.90;;;;;;5078385;28;20040;-84
2021/06/21 10:20:36;;;;;;;0.82;0.55;;;16.40;99.90;;;;;;5081487;28;20040;-83
2021/06/21 10:23:05;;;;;;;1.17;0.70;;;16.40;99.90;;;;;;5096669;28;20115;-84
2021/06/21 10:25:31;;;;;;;1.30;0.70;;;16.30;99.90;;;;;;5078958;28;20556;-84
2021/06/21 10:28:00;;;;;;;0.80;0.70;;;16.30;99.90;;;;;;5087288;28;20044;-84
2021/06/21 10:30:27;;;;;;;1.65;0.65;;;16.30;99.90;;;;;;5087682;28;20062;-84
2021/06/21 10:32:53;;;;;;;0.70;0.50;;;16.30;99.90;;;;;;5094041;28;20043;-83
2021/06/21 10:35:24;;;;;;;1.55;0.60;;;16.30;99.90;;;;;;5094743;28;20032;-85
2021/06/21 10:38:17;;;;;;;1.52;0.80;;;16.30;99.90;;;;;;5073346;28;20043;-86
2021/06/21 10:41:01;;;;;;;1.10;0.68;;;16.40;99.90;;;;;;5086059;28;20083;-86
2021/06/21 10:43:54;;;;;;;2.25;0.93;;;16.50;99.90;;;;;;5078264;28;20038;-84
2021/06/21 10:46:22;;;;;;;1.25;0.60;;;16.50;99.90;;;;;;5066240;28;20025;-85
2021/06/21 10:49:22;;;;;;;1.08;0.70;;;16.60;99.90;;;;;;5092515;28;20036;-84
2021/06/21 10:52:51;;;;;;;1.50;0.70;;;16.60;99.90;;;;;;5022025;28;20160;-85
2021/06/21 10:56:02;;;;;;;0.60;0.57;;;16.70;99.90;;;;;;5057524;28;20425;-84
2021/06/21 10:58:28;;;;;;;1.42;0.70;;;16.60;99.90;;;;;;5076006;28;20517;-85
2021/06/21 11:01:13;;;;;;;1.02;0.50;;;16.60;99.90;;;;;;5074767;28;20032;-85
2021/06/21 11:03:47;;;;;;;0.90;0.50;;;16.70;99.90;;;;;;5071758;28;20032;-85
2021/06/21 11:06:21;;;;;;;0.60;0.52;;;16.80;99.90;;;;;;5084042;28;20110;-86
2021/06/21 11:08:51;;;;;;;0.77;0.57;;;16.80;99.90;;;;;;5071685;28;20492;-85
2021/06/21 11:11:44;;;;;;;1.25;0.60;;;16.80;99.90;;;;;;5061281;28;20032;-87
2021/06/21 11:14:15;;;;;;;1.00;0.80;;;16.90;99.90;;;;;;5093659;28;20469;-86
2021/06/21 11:16:51;;;;;;;0.70;0.70;;;16.90;99.90;;;;;;5072294;28;20373;-84
2021/06/21 11:19:28;;;;;;;1.30;0.80;;;17.10;99.90;;;;;;5092401;28;20028;-87
2021/06/21 11:22:03;;;;;;;2.13;1.10;;;17.20;99.90;;;;;;5092387;28;20469;-86
2021/06/21 11:24:35;;;;;;;1.17;0.90;;;17.30;99.90;;;;;;5074931;28;20093;-85
2021/06/21 11:27:19;;;;;;;1.25;0.82;;;17.30;99.90;;;;;;5055866;28;20025;-85
2021/06/21 11:29:51;;;;;;;3.95;1.10;;;17.20;99.90;;;;;;5075341;28;20044;-87
2021/06/21 11:32:34;;;;;;;;;;;;;;;;;;;;;
2021/06/21 11:35:01;;;;;;;2.00;1.23;;;17.00;99.90;;;;;;5087244;28;20115;-85
2021/06/21 11:38:23;;;;;;;1.90;0.90;;;16.90;99.90;;;;;;5093635;28;20040;-85
2021/06/21 11:41:28;;;;;;;1.67;0.80;;;16.90;99.90;;;;;;5011323;28;20026;-86
2021/06/21 11:43:56;;;;;;;0.82;0.80;;;16.80;99.90;;;;;;5023768;28;20036;-86
2021/06/21 11:46:49;;;;;;;2.17;1.05;;;16.90;99.90;;;;;;5072846;28;20064;-85
2021/06/21 11:49:21;;;;;;;1.27;0.85;;;16.90;99.90;;;;;;5098675;28;20542;-86
2021/06/21 11:52:03;;;;;;;1.90;0.90;;;17.00;99.90;;;;;;5058603;28;20051;-84
2021/06/21 11:54:36;;;;;;;0.93;0.80;;;17.20;99.90;;;;;;4910655;28;20040;-83
2021/06/21 11:57:09;;;;;;;1.13;0.88;;;17.20;99.90;;;;;;4982668;28;20497;-85
2021/06/21 11:59:40;;;;;;;1.70;1.00;;;17.30;99.90;;;;;;5046514;28;20037;-85
2021/06/21 12:02:12;;;;;;;2.17;1.00;;;17.30;99.90;;;;;;5048691;28;20041;-85
2021/06/21 12:04:41;;;;;;;1.17;1.00;;;17.50;99.90;;;;;;5068661;28;20151;-85
2021/06/21 12:07:34;;;;;;;1.75;1.05;;;17.60;99.90;;;;;;5077454;28;20024;-85
2021/06/21 12:10:05;;;;;;;1.00;0.80;;;17.70;99.90;;;;;;5055531;28;20036;-85
2021/06/21 12:12:35;;;;;;;1.40;0.93;;;17.80;99.90;;;;;;5071256;28;20041;-86
2021/06/21 12:15:04;;;;;;;1.30;0.80;;;18.00;99.90;;;;;;5064747;28;20115;-85
2021/06/21 12:17:34;;;;;;;1.42;0.80;;;18.30;99.90;;;;;;5068789;28;20051;-85
2021/06/21 12:20:14;;;;;;;1.85;0.93;;;18.40;99.90;;;;;;5077489;28;20124;-86
2021/06/21 12:23:02;;;;;;;1.02;0.70;;;18.40;99.90;;;;;;5057211;28;20587;-85
2021/06/21 12:25:45;;;;;;;1.85;1.00;;;18.30;99.90;;;;;;5017978;28;20036;-85
2021/06/21 12:28:43;;;;;;;1.37;1.00;;;18.30;99.90;;;;;;5076968;28;20032;-85
2021/06/21 12:31:16;;;;;;;2.47;1.00;;;18.40;99.90;;;;;;5016441;28;20052;-86
2021/06/21 12:33:43;;;;;;;1.60;0.80;;;18.30;99.90;;;;;;5068989;28;20447;-86
2021/06/21 12:36:23;;;;;;;2.00;0.90;;;18.30;99.90;;;;;;5050515;28;20041;-85
2021/06/21 12:38:52;;;;;;;1.02;0.90;;;18.20;99.90;;;;;;5066567;28;20037;-85
2021/06/21 12:41:40;;;;;;;1.40;0.90;;;18.10;99.90;;;;;;5069845;28;20087;-85
2021/06/21 12:44:14;;;;;;;1.38;1.20;;;18.20;99.90;;;;;;5075639;28;20036;-85
2021/06/21 12:46:45;;;;;;;1.63;0.85;;;18.00;99.90;;;;;;5051326;28;20082;-84
2021/06/21 12:49:19;;;;;;;2.88;1.00;;;17.90;99.90;;;;;;5067392;28;20079;-85
2021/06/21 12:51:45;;;;;;;1.60;1.00;;;17.80;99.90;;;;;;5043530;28;20657;-86
2021/06/21 12:54:34;;;;;;;1.35;0.90;;;17.70;99.90;;;;;;5068206;28;20071;-85
2021/06/21 12:57:01;;;;;;;1.48;1.17;;;17.60;99.90;;;;;;5065211;28;20029;-85
2021/06/21 12:59:36;;;;;;;1.60;1.10;;;17.40;99.90;;;;;;5054114;28;20033;-83
2021/06/21 13:02:30;;;;;;;2.35;1.10;;;17.40;99.90;;;;;;5068058;28;20039;-84
2021/06/21 13:05:00;;;;;;;1.52;0.90;;;17.40;99.90;;;;;;5068306;28;20120;-84
2021/06/21 13:07:39;;;;;;;1.65;1.15;;;17.40;99.90;;;;;;5051588;28;20551;-85
2021/06/21 13:10:07;;;;;;;1.35;0.82;;;17.50;99.90;;;;;;5070671;28;20050;-85
2021/06/21 13:12:43;;;;;;;0.82;0.77;;;17.70;99.90;;;;;;5067725;28;20040;-85
2021/06/21 13:15:18;;;;;;;1.20;0.77;;;18.10;99.90;;;;;;5067194;28;20131;-85